Time,TemperatureF,DewpointF,PressureIn,WindDirection,WindDirectionDegrees,WindSpeedMPH,WindSpeedGustMPH,Humidity,HourlyPrecipIn,Conditions,Clouds,dailyrainin,SoftwareType,DateUTC
2013-01-08 00:01:00,58.0,27.0,30.06,NNE,17,0.0,-999.0,30,-99.99,,,-99.99,,2013-01-08 08:01:00,
2013-01-08 00:22:00,57.0,26.0,30.06,ENE,67,0.0,-999.0,30,-99.99,,,-99.99,,2013-01-08 08:22:00,
2013-01-08 00:32:00,57.0,26.0,30.06,ENE,62,0.0,-999.0,30,-99.99,,,-99.99,,2013-01-08 08:32:00,
2013-01-08 00:52:00,56.0,25.0,30.05,ENE,61,0.0,-999.0,30,-99.99,,,-99.99,,2013-01-08 08:52:00,
2013-01-08 01:02:00,57.0,25.0,30.05,NNE,28,0.0,-999.0,29,-99.99,,,-99.99,,2013-01-08 09:02:00,
2013-01-08 01:22:00,59.0,25.0,30.05,NNE,28,3.0,-999.0,27,-99.99,,,-99.99,,2013-01-08 09:22:00,
2013-01-08 01:32:00,60.0,24.0,30.05,NNE,31,4.0,-999.0,25,-99.99,,,-99.99,,2013-01-08 09:32:00,
2013-01-08 01:52:00,60.0,25.0,30.04,ENE,63,2.0,-999.0,26,-99.99,,,-99.99,,2013-01-08 09:52:00,
2013-01-08 02:02:00,60.0,25.0,30.04,NNE,20,2.0,-999.0,26,-99.99,,,-99.99,,2013-01-08 10:02:00,
2013-01-08 02:22:00,60.0,25.0,30.04,NNE,30,3.0,-999.0,26,-99.99,,,-99.99,,2013-01-08 10:22:00,
2013-01-08 02:32:00,60.0,25.0,30.04,NNE,32,2.0,-999.0,26,-99.99,,,-99.99,,2013-01-08 10:32:00,
2013-01-08 02:52:00,60.0,25.0,30.05,NNE,21,2.0,-999.0,26,-99.99,,,-99.99,,2013-01-08 10:52:00,
2013-01-08 03:02:00,56.0,24.0,30.04,NNE,19,1.0,-999.0,29,-99.99,,,-99.99,,2013-01-08 11:02:00,
2013-01-08 03:11:00,56.0,24.0,30.04,NNE,19,1.0,-999.0,29,-99.99,,,-99.99,,2013-01-08 11:11:00,
2013-01-08 03:22:00,55.0,26.0,30.04,NNE,19,0.0,-999.0,32,-99.99,,,-99.99,,2013-01-08 11:22:00,
2013-01-08 03:32:00,53.0,25.0,30.04,NNE,19,0.0,-999.0,33,-99.99,,,-99.99,,2013-01-08 11:32:00,
2013-01-08 03:42:00,53.0,25.0,30.04,NNE,19,0.0,-999.0,33,-99.99,,,-99.99,,2013-01-08 11:42:00,
2013-01-08 03:53:00,54.0,25.0,30.04,NNE,19,0.0,-999.0,32,-99.99,,,-99.99,,2013-01-08 11:53:00,
2013-01-08 04:02:00,54.0,25.0,30.04,NNE,19,0.0,-999.0,32,-99.99,,,-99.99,,2013-01-08 12:02:00,
2013-01-08 04:11:00,54.0,25.0,30.04,NNE,19,0.0,-999.0,32,-99.99,,,-99.99,,2013-01-08 12:11:00,
2013-01-08 04:22:00,56.0,26.0,30.04,NNE,24,1.0,-999.0,31,-99.99,,,-99.99,,2013-01-08 12:22:00,
2013-01-08 04:32:00,56.0,26.0,30.04,NNE,24,0.0,-999.0,31,-99.99,,,-99.99,,2013-01-08 12:32:00,
2013-01-08 04:53:00,59.0,27.0,30.04,NNE,14,2.0,-999.0,29,-99.99,,,-99.99,,2013-01-08 12:53:00,
2013-01-08 05:02:00,60.0,28.0,30.04,NNE,21,3.0,-999.0,29,-99.99,,,-99.99,,2013-01-08 13:02:00,
2013-01-08 05:22:00,59.0,27.0,30.04,NNE,22,2.0,-999.0,29,-99.99,,,-99.99,,2013-01-08 13:22:00,
2013-01-08 05:32:00,59.0,28.0,30.04,NNE,15,1.0,-999.0,30,-99.99,,,-99.99,,2013-01-08 13:32:00,
2013-01-08 05:52:00,59.0,28.0,30.04,NNE,15,0.0,-999.0,31,-99.99,,,-99.99,,2013-01-08 13:52:00,
2013-01-08 06:02:00,58.0,28.0,30.04,NNE,15,0.0,-999.0,32,-99.99,,,-99.99,,2013-01-08 14:02:00,
2013-01-08 06:22:00,59.0,28.0,30.05,NNE,15,0.0,-999.0,31,-99.99,,,-99.99,,2013-01-08 14:22:00,
2013-01-08 06:32:00,59.0,29.0,30.05,NNE,13,0.0,-999.0,32,-99.99,,,-99.99,,2013-01-08 14:32:00,
2013-01-08 06:53:00,58.0,29.0,30.06,NNE,13,0.0,-999.0,33,-99.99,,,-99.99,,2013-01-08 14:53:00,
2013-01-08 07:02:00,56.0,29.0,30.07,NNE,13,0.0,-999.0,36,-99.99,,,-99.99,,2013-01-08 15:02:00,
2013-01-08 07:22:00,55.0,29.0,30.07,NNE,13,0.0,-999.0,37,-99.99,,,-99.99,,2013-01-08 15:22:00,
2013-01-08 07:32:00,57.0,30.0,30.07,NNE,13,1.0,-999.0,36,-99.99,,,-99.99,,2013-01-08 15:32:00,
2013-01-08 07:53:00,60.0,32.0,30.08,NNE,26,2.0,-999.0,35,-99.99,,,-99.99,,2013-01-08 15:53:00,
2013-01-08 08:02:00,60.0,32.0,30.08,NNE,21,1.0,-999.0,35,-99.99,,,-99.99,,2013-01-08 16:02:00,
2013-01-08 08:22:00,59.0,31.0,30.08,NNE,21,0.0,-999.0,35,-99.99,,,-99.99,,2013-01-08 16:22:00,
2013-01-08 08:32:00,62.0,34.0,30.08,NNE,25,3.0,-999.0,35,-99.99,,,-99.99,,2013-01-08 16:32:00,
2013-01-08 08:52:00,63.0,34.0,30.09,North,360,3.0,-999.0,34,-99.99,,,-99.99,,2013-01-08 16:52:00,
2013-01-08 09:02:00,64.0,35.0,30.09,NNE,26,4.0,-999.0,34,-99.99,,,-99.99,,2013-01-08 17:02:00,
2013-01-08 09:22:00,65.0,35.0,30.10,NE,39,4.0,-999.0,33,-99.99,,,-99.99,,2013-01-08 17:22:00,
2013-01-08 09:33:00,66.0,36.0,30.10,NNE,22,5.0,-999.0,33,-99.99,,,-99.99,,2013-01-08 17:33:00,
2013-01-08 09:53:00,67.0,37.0,30.10,NE,39,4.0,-999.0,33,-99.99,,,-99.99,,2013-01-08 17:53:00,
2013-01-08 10:03:00,68.0,37.0,30.10,NE,37,5.0,-999.0,32,-99.99,,,-99.99,,2013-01-08 18:03:00,
2013-01-08 10:12:00,68.0,37.0,30.10,NE,37,5.0,-999.0,32,-99.99,,,-99.99,,2013-01-08 18:12:00,
2013-01-08 10:22:00,68.0,38.0,30.10,NNE,30,5.0,-999.0,33,-99.99,,,-99.99,,2013-01-08 18:22:00,
2013-01-08 10:32:00,69.0,38.0,30.10,NNE,26,5.0,-999.0,32,-99.99,,,-99.99,,2013-01-08 18:32:00,
2013-01-08 10:43:00,69.0,38.0,30.10,NNE,26,5.0,-999.0,32,-99.99,,,-99.99,,2013-01-08 18:43:00,
2013-01-08 10:53:00,69.0,38.0,30.09,NNE,28,5.0,-999.0,32,-99.99,,,-99.99,,2013-01-08 18:53:00,
2013-01-08 11:02:00,70.0,38.0,30.09,NNE,12,4.0,-999.0,31,-99.99,,,-99.99,,2013-01-08 19:02:00,
2013-01-08 11:11:00,70.0,38.0,30.09,NNE,12,4.0,-999.0,31,-99.99,,,-99.99,,2013-01-08 19:11:00,
2013-01-08 11:22:00,70.0,38.0,30.07,NNE,19,6.0,-999.0,31,-99.99,,,-99.99,,2013-01-08 19:22:00,
2013-01-08 11:32:00,71.0,39.0,30.07,NNE,26,5.0,-999.0,31,-99.99,,,-99.99,,2013-01-08 19:32:00,
2013-01-08 11:42:00,71.0,39.0,30.07,NNE,26,5.0,-999.0,31,-99.99,,,-99.99,,2013-01-08 19:42:00,
2013-01-08 11:53:00,72.0,39.0,30.07,NNE,26,4.0,-999.0,30,-99.99,,,-99.99,,2013-01-08 19:53:00,
2013-01-08 12:02:00,73.0,40.0,30.06,North,11,2.0,-999.0,30,-99.99,,,-99.99,,2013-01-08 20:02:00,
2013-01-08 12:12:00,73.0,40.0,30.06,North,11,2.0,-999.0,30,-99.99,,,-99.99,,2013-01-08 20:12:00,
2013-01-08 12:22:00,74.0,40.0,30.06,North,355,1.0,-999.0,29,-99.99,,,-99.99,,2013-01-08 20:22:00,
2013-01-08 12:32:00,74.0,41.0,30.06,North,5,1.0,-999.0,30,-99.99,,,-99.99,,2013-01-08 20:32:00,
2013-01-08 12:42:00,74.0,41.0,30.06,North,5,1.0,-999.0,30,-99.99,,,-99.99,,2013-01-08 20:42:00,
2013-01-08 12:53:00,75.0,41.0,30.05,North,360,0.0,-999.0,30,-99.99,,,-99.99,,2013-01-08 20:53:00,
2013-01-08 13:02:00,75.0,41.0,30.04,ENE,58,2.0,-999.0,29,-99.99,,,-99.99,,2013-01-08 21:02:00,
2013-01-08 13:12:00,75.0,41.0,30.04,ENE,58,2.0,-999.0,29,-99.99,,,-99.99,,2013-01-08 21:12:00,
2013-01-08 13:22:00,75.0,41.0,30.03,NNE,25,1.0,-999.0,29,-99.99,,,-99.99,,2013-01-08 21:22:00,
2013-01-08 13:32:00,75.0,43.0,30.03,NNW,344,2.0,-999.0,32,-99.99,,,-99.99,,2013-01-08 21:32:00,
2013-01-08 13:42:00,75.0,43.0,30.03,NNW,344,2.0,-999.0,32,-99.99,,,-99.99,,2013-01-08 21:42:00,
2013-01-08 13:53:00,76.0,44.0,30.03,SW,236,0.0,-999.0,32,-99.99,,,-99.99,,2013-01-08 21:53:00,
2013-01-08 14:02:00,77.0,49.0,30.04,SW,234,0.0,-999.0,37,-99.99,,,-99.99,,2013-01-08 22:02:00,
2013-01-08 14:22:00,74.0,47.0,30.03,SW,235,0.0,-999.0,39,-99.99,,,-99.99,,2013-01-08 22:22:00,
2013-01-08 14:32:00,73.0,48.0,30.03,SW,233,0.0,-999.0,41,-99.99,,,-99.99,,2013-01-08 22:32:00,
2013-01-08 14:42:00,73.0,48.0,30.03,SW,233,0.0,-999.0,41,-99.99,,,-99.99,,2013-01-08 22:42:00,
2013-01-08 14:52:00,73.0,48.0,30.04,SW,234,0.0,-999.0,41,-99.99,,,-99.99,,2013-01-08 22:52:00,
2013-01-08 15:02:00,72.0,48.0,30.03,SW,234,0.0,-999.0,42,-99.99,,,-99.99,,2013-01-08 23:02:00,
2013-01-08 15:12:00,72.0,48.0,30.03,SW,234,0.0,-999.0,42,-99.99,,,-99.99,,2013-01-08 23:12:00,
2013-01-08 15:22:00,72.0,48.0,30.03,SW,234,0.0,-999.0,42,-99.99,,,-99.99,,2013-01-08 23:22:00,
2013-01-08 15:32:00,69.0,47.0,30.04,WSW,243,1.0,-999.0,46,-99.99,,,-99.99,,2013-01-08 23:32:00,
2013-01-08 15:42:00,69.0,47.0,30.04,WSW,243,1.0,-999.0,46,-99.99,,,-99.99,,2013-01-08 23:42:00,
2013-01-08 15:52:00,69.0,48.0,30.04,SW,232,0.0,-999.0,47,-99.99,,,-99.99,,2013-01-08 23:52:00,
2013-01-08 16:02:00,68.0,48.0,30.05,SW,232,0.0,-999.0,48,-99.99,,,-99.99,,2013-01-09 00:02:00,
2013-01-08 16:12:00,68.0,48.0,30.05,SW,232,0.0,-999.0,48,-99.99,,,-99.99,,2013-01-09 00:12:00,
2013-01-08 16:22:00,68.0,48.0,30.05,SW,232,0.0,-999.0,48,-99.99,,,-99.99,,2013-01-09 00:22:00,
2013-01-08 16:32:00,66.0,47.0,30.05,SW,232,0.0,-999.0,50,-99.99,,,-99.99,,2013-01-09 00:32:00,
2013-01-08 16:42:00,66.0,47.0,30.05,SW,232,0.0,-999.0,50,-99.99,,,-99.99,,2013-01-09 00:42:00,
2013-01-08 16:52:00,64.0,47.0,30.05,SW,232,0.0,-999.0,53,-99.99,,,-99.99,,2013-01-09 00:52:00,
2013-01-08 17:02:00,62.0,47.0,30.05,WSW,252,0.0,-999.0,58,-99.99,,,-99.99,,2013-01-09 01:02:00,
2013-01-08 17:12:00,62.0,47.0,30.05,WSW,252,0.0,-999.0,58,-99.99,,,-99.99,,2013-01-09 01:12:00,
2013-01-08 17:22:00,61.0,48.0,30.05,WSW,245,0.0,-999.0,62,-99.99,,,-99.99,,2013-01-09 01:22:00,
2013-01-08 17:32:00,59.0,47.0,30.06,WSW,243,0.0,-999.0,65,-99.99,,,-99.99,,2013-01-09 01:32:00,
2013-01-08 17:42:00,59.0,47.0,30.06,WSW,243,0.0,-999.0,65,-99.99,,,-99.99,,2013-01-09 01:42:00,
2013-01-08 17:52:00,59.0,48.0,30.05,WSW,243,0.0,-999.0,67,-99.99,,,-99.99,,2013-01-09 01:52:00,
2013-01-08 18:02:00,58.0,47.0,30.06,WSW,243,0.0,-999.0,67,-99.99,,,-99.99,,2013-01-09 02:02:00,
2013-01-08 18:12:00,58.0,47.0,30.06,WSW,243,0.0,-999.0,67,-99.99,,,-99.99,,2013-01-09 02:12:00,
2013-01-08 18:22:00,57.0,48.0,30.06,WSW,243,0.0,-999.0,71,-99.99,,,-99.99,,2013-01-09 02:22:00,
2013-01-08 18:32:00,55.0,47.0,30.06,WSW,243,0.0,-999.0,74,-99.99,,,-99.99,,2013-01-09 02:32:00,
2013-01-08 18:42:00,55.0,47.0,30.06,WSW,243,0.0,-999.0,74,-99.99,,,-99.99,,2013-01-09 02:42:00,
2013-01-08 18:52:00,55.0,47.0,30.06,WSW,243,0.0,-999.0,75,-99.99,,,-99.99,,2013-01-09 02:52:00,
2013-01-08 19:02:00,54.0,46.0,30.06,WSW,244,0.0,-999.0,75,-99.99,,,-99.99,,2013-01-09 03:02:00,
2013-01-08 19:12:00,54.0,46.0,30.06,WSW,244,0.0,-999.0,75,-99.99,,,-99.99,,2013-01-09 03:12:00,
2013-01-08 19:22:00,54.0,46.0,30.06,WSW,244,0.0,-999.0,74,-99.99,,,-99.99,,2013-01-09 03:22:00,
2013-01-08 19:32:00,57.0,43.0,30.06,WSW,244,0.0,-999.0,60,-99.99,,,-99.99,,2013-01-09 03:32:00,
2013-01-08 19:42:00,57.0,43.0,30.06,WSW,244,0.0,-999.0,60,-99.99,,,-99.99,,2013-01-09 03:42:00,
2013-01-08 19:52:00,57.0,44.0,30.06,WSW,244,0.0,-999.0,61,-99.99,,,-99.99,,2013-01-09 03:52:00,
2013-01-08 20:02:00,58.0,41.0,30.06,WSW,244,0.0,-999.0,53,-99.99,,,-99.99,,2013-01-09 04:02:00,
2013-01-08 20:12:00,58.0,41.0,30.06,WSW,244,0.0,-999.0,53,-99.99,,,-99.99,,2013-01-09 04:12:00,
2013-01-08 20:22:00,59.0,40.0,30.07,WSW,244,0.0,-999.0,49,-99.99,,,-99.99,,2013-01-09 04:22:00,
2013-01-08 20:32:00,59.0,40.0,30.07,WSW,244,0.0,-999.0,49,-99.99,,,-99.99,,2013-01-09 04:32:00,
2013-01-08 20:42:00,60.0,38.0,30.08,SE,136,0.0,-999.0,44,-99.99,,,-99.99,,2013-01-09 04:42:00,
2013-01-08 20:52:00,60.0,38.0,30.08,SE,136,0.0,-999.0,44,-99.99,,,-99.99,,2013-01-09 04:52:00,
2013-01-08 21:03:00,61.0,37.0,30.07,NE,37,1.0,-999.0,41,-99.99,,,-99.99,,2013-01-09 05:03:00,
2013-01-08 21:22:00,62.0,36.0,30.08,East,88,1.0,-999.0,38,-99.99,,,-99.99,,2013-01-09 05:22:00,
2013-01-08 21:33:00,61.0,36.0,30.08,East,98,0.0,-999.0,40,-99.99,,,-99.99,,2013-01-09 05:33:00,
2013-01-08 21:52:00,61.0,36.0,30.08,NNE,32,1.0,-999.0,40,-99.99,,,-99.99,,2013-01-09 05:52:00,
2013-01-08 22:02:00,64.0,37.0,30.09,NE,38,3.0,-999.0,36,-99.99,,,-99.99,,2013-01-09 06:02:00,
2013-01-08 22:22:00,63.0,36.0,30.09,ENE,74,1.0,-999.0,37,-99.99,,,-99.99,,2013-01-09 06:22:00,
2013-01-08 22:52:00,59.0,37.0,30.09,SE,138,0.0,-999.0,43,-99.99,,,-99.99,,2013-01-09 06:52:00,
2013-01-08 23:02:00,60.0,36.0,30.10,NNE,24,0.0,-999.0,40,-99.99,,,-99.99,,2013-01-09 07:02:00,
2013-01-08 23:22:00,61.0,36.0,30.09,ESE,112,0.0,-999.0,39,-99.99,,,-99.99,,2013-01-09 07:22:00,
2013-01-08 23:32:00,62.0,35.0,30.09,NNE,29,1.0,-999.0,37,-99.99,,,-99.99,,2013-01-09 07:32:00,
2013-01-08 23:52:00,63.0,36.0,30.09,NNE,30,1.0,-999.0,37,-99.99,,,-99.99,,2013-01-09 07:52:00,